sensor_id;sensor_type;location;lat;lon;timestamp;P1;durP1;ratioP1;P2;durP2;ratioP2
51907;SDS011;39320;53.214;6.556;2023-02-15T00:00:12;28.45;;;24.75;;
51907;SDS011;39320;53.214;6.556;2023-02-15T00:02:38;27.90;;;23.00;;
51907;SDS011;39320;53.214;6.556;2023-02-15T00:05:04;25.67;;;23.02;;
51907;SDS011;39320;53.214;6.556;2023-02-15T00:07:31;27.60;;;24.73;;
51907;SDS011;39320;53.214;6.556;2023-02-15T00:09:57;25.88;;;23.27;;
51907;SDS011;39320;53.214;6.556;2023-02-15T00:12:24;27.65;;;24.77;;
51907;SDS011;39320;53.214;6.556;2023-02-15T00:14:50;27.40;;;24.55;;
51907;SDS011;39320;53.214;6.556;2023-02-15T00:17:15;28.52;;;24.23;;
51907;SDS011;39320;53.214;6.556;2023-02-15T00:19:41;27.23;;;24.52;;
51907;SDS011;39320;53.214;6.556;2023-02-15T00:22:07;28.40;;;24.42;;
51907;SDS011;39320;53.214;6.556;2023-02-15T00:24:33;28.85;;;25.70;;
51907;SDS011;39320;53.214;6.556;2023-02-15T00:26:59;28.33;;;25.35;;
51907;SDS011;39320;53.214;6.556;2023-02-15T00:29:25;28.42;;;25.48;;
51907;SDS011;39320;53.214;6.556;2023-02-15T00:31:51;31.13;;;26.02;;
51907;SDS011;39320;53.214;6.556;2023-02-15T00:34:21;30.55;;;27.33;;
51907;SDS011;39320;53.214;6.556;2023-02-15T00:36:49;29.58;;;26.33;;
51907;SDS011;39320;53.214;6.556;2023-02-15T00:39:15;30.73;;;27.33;;
51907;SDS011;39320;53.214;6.556;2023-02-15T00:41:42;29.33;;;26.13;;
51907;SDS011;39320;53.214;6.556;2023-02-15T00:44:08;29.90;;;25.70;;
51907;SDS011;39320;53.214;6.556;2023-02-15T00:46:34;31.20;;;27.85;;
51907;SDS011;39320;53.214;6.556;2023-02-15T00:49:00;31.73;;;27.55;;
51907;SDS011;39320;53.214;6.556;2023-02-15T00:51:26;30.33;;;27.13;;
51907;SDS011;39320;53.214;6.556;2023-02-15T00:53:52;31.67;;;27.60;;
51907;SDS011;39320;53.214;6.556;2023-02-15T00:56:18;33.00;;;27.58;;
51907;SDS011;39320;53.214;6.556;2023-02-15T00:58:44;33.45;;;29.85;;
51907;SDS011;39320;53.214;6.556;2023-02-15T01:01:11;34.60;;;30.90;;
51907;SDS011;39320;53.214;6.556;2023-02-15T01:03:39;35.75;;;29.35;;
51907;SDS011;39320;53.214;6.556;2023-02-15T01:06:07;36.22;;;30.75;;
51907;SDS011;39320;53.214;6.556;2023-02-15T01:08:33;34.83;;;30.20;;
51907;SDS011;39320;53.214;6.556;2023-02-15T01:11:18;34.33;;;30.48;;
51907;SDS011;39320;53.214;6.556;2023-02-15T01:13:52;34.40;;;29.02;;
51907;SDS011;39320;53.214;6.556;2023-02-15T01:16:20;32.42;;;28.38;;
51907;SDS011;39320;53.214;6.556;2023-02-15T01:18:46;33.05;;;27.73;;
51907;SDS011;39320;53.214;6.556;2023-02-15T01:21:12;37.00;;;27.20;;
51907;SDS011;39320;53.214;6.556;2023-02-15T01:23:40;34.92;;;31.13;;
51907;SDS011;39320;53.214;6.556;2023-02-15T01:26:07;34.22;;;29.10;;
51907;SDS011;39320;53.214;6.556;2023-02-15T01:28:33;34.00;;;28.88;;
51907;SDS011;39320;53.214;6.556;2023-02-15T01:31:03;31.10;;;27.83;;
51907;SDS011;39320;53.214;6.556;2023-02-15T01:33:36;34.22;;;28.40;;
51907;SDS011;39320;53.214;6.556;2023-02-15T01:36:03;32.15;;;28.85;;
51907;SDS011;39320;53.214;6.556;2023-02-15T01:38:29;33.47;;;27.17;;
51907;SDS011;39320;53.214;6.556;2023-02-15T01:40:55;32.30;;;27.13;;
51907;SDS011;39320;53.214;6.556;2023-02-15T01:43:48;28.88;;;25.73;;
51907;SDS011;39320;53.214;6.556;2023-02-15T01:46:16;29.42;;;26.02;;
51907;SDS011;39320;53.214;6.556;2023-02-15T01:48:47;28.77;;;25.83;;
51907;SDS011;39320;53.214;6.556;2023-02-15T01:51:17;28.50;;;25.55;;
51907;SDS011;39320;53.214;6.556;2023-02-15T01:54:05;28.90;;;25.77;;
51907;SDS011;39320;53.214;6.556;2023-02-15T01:56:36;28.17;;;25.23;;
51907;SDS011;39320;53.214;6.556;2023-02-15T01:59:06;25.88;;;23.13;;
51907;SDS011;39320;53.214;6.556;2023-02-15T02:01:36;26.58;;;23.77;;
51907;SDS011;39320;53.214;6.556;2023-02-15T02:04:12;24.65;;;22.13;;
51907;SDS011;39320;53.214;6.556;2023-02-15T02:06:57;25.08;;;22.45;;
51907;SDS011;39320;53.214;6.556;2023-02-15T02:09:24;25.50;;;22.80;;
51907;SDS011;39320;53.214;6.556;2023-02-15T02:11:50;24.75;;;22.13;;
51907;SDS011;39320;53.214;6.556;2023-02-15T02:14:16;24.95;;;22.33;;
51907;SDS011;39320;53.214;6.556;2023-02-15T02:22:37;24.02;;;21.52;;
51907;SDS011;39320;53.214;6.556;2023-02-15T02:47:12;23.30;;;20.77;;
51907;SDS011;39320;53.214;6.556;2023-02-15T02:49:44;22.85;;;20.42;;
51907;SDS011;39320;53.214;6.556;2023-02-15T02:55:29;23.30;;;20.85;;
51907;SDS011;39320;53.214;6.556;2023-02-15T03:00:29;23.92;;;21.38;;
51907;SDS011;39320;53.214;6.556;2023-02-15T03:03:02;23.83;;;21.33;;
51907;SDS011;39320;53.214;6.556;2023-02-15T03:05:36;24.55;;;22.13;;
51907;SDS011;39320;53.214;6.556;2023-02-15T03:08:09;23.88;;;21.55;;
51907;SDS011;39320;53.214;6.556;2023-02-15T03:10:37;24.17;;;21.75;;
51907;SDS011;39320;53.214;6.556;2023-02-15T03:13:05;24.75;;;22.20;;
51907;SDS011;39320;53.214;6.556;2023-02-15T03:15:34;23.35;;;20.95;;
51907;SDS011;39320;53.214;6.556;2023-02-15T03:18:22;23.75;;;21.45;;
51907;SDS011;39320;53.214;6.556;2023-02-15T03:20:53;23.38;;;20.90;;
51907;SDS011;39320;53.214;6.556;2023-02-15T03:23:21;24.08;;;21.52;;
51907;SDS011;39320;53.214;6.556;2023-02-15T03:25:52;24.08;;;21.55;;
51907;SDS011;39320;53.214;6.556;2023-02-15T03:31:19;23.67;;;21.30;;
51907;SDS011;39320;53.214;6.556;2023-02-15T03:33:58;24.45;;;21.95;;
51907;SDS011;39320;53.214;6.556;2023-02-15T03:41:58;23.77;;;21.27;;
51907;SDS011;39320;53.214;6.556;2023-02-15T03:44:52;22.98;;;20.65;;
51907;SDS011;39320;53.214;6.556;2023-02-15T03:47:35;23.98;;;21.50;;
51907;SDS011;39320;53.214;6.556;2023-02-15T03:50:05;24.00;;;21.58;;
51907;SDS011;39320;53.214;6.556;2023-02-15T03:52:53;23.30;;;21.08;;
51907;SDS011;39320;53.214;6.556;2023-02-15T03:55:21;23.40;;;20.90;;
51907;SDS011;39320;53.214;6.556;2023-02-15T03:57:47;23.25;;;20.77;;
51907;SDS011;39320;53.214;6.556;2023-02-15T04:00:32;25.30;;;21.58;;
51907;SDS011;39320;53.214;6.556;2023-02-15T04:03:22;24.55;;;22.05;;
51907;SDS011;39320;53.214;6.556;2023-02-15T04:05:58;25.48;;;22.73;;
51907;SDS011;39320;53.214;6.556;2023-02-15T04:08:26;24.45;;;21.85;;
51907;SDS011;39320;53.214;6.556;2023-02-15T04:11:12;24.25;;;21.73;;
51907;SDS011;39320;53.214;6.556;2023-02-15T04:13:38;24.88;;;21.30;;
51907;SDS011;39320;53.214;6.556;2023-02-15T04:16:04;24.38;;;21.95;;
51907;SDS011;39320;53.214;6.556;2023-02-15T04:18:36;26.55;;;23.92;;
51907;SDS011;39320;53.214;6.556;2023-02-15T04:21:21;26.73;;;23.98;;
51907;SDS011;39320;53.214;6.556;2023-02-15T04:24:06;27.83;;;24.80;;
51907;SDS011;39320;53.214;6.556;2023-02-15T04:26:50;30.02;;;26.02;;
51907;SDS011;39320;53.214;6.556;2023-02-15T04:29:21;27.77;;;24.88;;
51907;SDS011;39320;53.214;6.556;2023-02-15T04:31:48;26.42;;;23.55;;
51907;SDS011;39320;53.214;6.556;2023-02-15T04:34:15;27.35;;;24.45;;
51907;SDS011;39320;53.214;6.556;2023-02-15T04:36:41;26.38;;;23.77;;
51907;SDS011;39320;53.214;6.556;2023-02-15T04:39:07;28.02;;;24.35;;
51907;SDS011;39320;53.214;6.556;2023-02-15T04:41:33;29.35;;;23.98;;
51907;SDS011;39320;53.214;6.556;2023-02-15T04:44:00;27.77;;;24.65;;
51907;SDS011;39320;53.214;6.556;2023-02-15T04:46:26;28.35;;;25.25;;
51907;SDS011;39320;53.214;6.556;2023-02-15T04:48:52;29.77;;;26.67;;
51907;SDS011;39320;53.214;6.556;2023-02-15T04:51:19;29.33;;;26.15;;
51907;SDS011;39320;53.214;6.556;2023-02-15T04:53:44;29.15;;;26.05;;
51907;SDS011;39320;53.214;6.556;2023-02-15T04:56:10;28.98;;;25.88;;
51907;SDS011;39320;53.214;6.556;2023-02-15T04:58:36;28.58;;;25.33;;
51907;SDS011;39320;53.214;6.556;2023-02-15T05:01:05;30.50;;;26.58;;
51907;SDS011;39320;53.214;6.556;2023-02-15T05:03:32;27.40;;;24.67;;
51907;SDS011;39320;53.214;6.556;2023-02-15T05:05:57;30.48;;;27.25;;
51907;SDS011;39320;53.214;6.556;2023-02-15T05:08:23;28.73;;;25.83;;
51907;SDS011;39320;53.214;6.556;2023-02-15T05:10:49;29.58;;;26.08;;
51907;SDS011;39320;53.214;6.556;2023-02-15T05:13:15;27.65;;;24.70;;
51907;SDS011;39320;53.214;6.556;2023-02-15T05:15:40;25.58;;;23.17;;
51907;SDS011;39320;53.214;6.556;2023-02-15T05:18:08;26.40;;;23.65;;
51907;SDS011;39320;53.214;6.556;2023-02-15T05:20:33;27.10;;;23.60;;
51907;SDS011;39320;53.214;6.556;2023-02-15T05:22:59;28.38;;;25.27;;
51907;SDS011;39320;53.214;6.556;2023-02-15T05:25:25;27.00;;;24.13;;
51907;SDS011;39320;53.214;6.556;2023-02-15T05:28:10;28.27;;;24.35;;
51907;SDS011;39320;53.214;6.556;2023-02-15T05:30:58;27.95;;;24.90;;
51907;SDS011;39320;53.214;6.556;2023-02-15T05:33:26;26.95;;;24.25;;
51907;SDS011;39320;53.214;6.556;2023-02-15T05:35:51;26.38;;;23.02;;
51907;SDS011;39320;53.214;6.556;2023-02-15T05:38:17;26.17;;;23.48;;
51907;SDS011;39320;53.214;6.556;2023-02-15T05:40:43;26.27;;;23.42;;
51907;SDS011;39320;53.214;6.556;2023-02-15T05:43:08;27.33;;;24.55;;
51907;SDS011;39320;53.214;6.556;2023-02-15T05:45:34;28.85;;;24.90;;
51907;SDS011;39320;53.214;6.556;2023-02-15T05:48:00;27.08;;;24.20;;
51907;SDS011;39320;53.214;6.556;2023-02-15T05:50:26;29.38;;;26.20;;
51907;SDS011;39320;53.214;6.556;2023-02-15T05:52:52;30.20;;;27.05;;
51907;SDS011;39320;53.214;6.556;2023-02-15T05:55:18;29.13;;;26.02;;
51907;SDS011;39320;53.214;6.556;2023-02-15T05:57:44;31.08;;;26.20;;
51907;SDS011;39320;53.214;6.556;2023-02-15T06:00:10;29.98;;;26.90;;
51907;SDS011;39320;53.214;6.556;2023-02-15T06:02:38;30.67;;;27.38;;
51907;SDS011;39320;53.214;6.556;2023-02-15T06:05:04;29.92;;;26.63;;
51907;SDS011;39320;53.214;6.556;2023-02-15T06:07:32;30.25;;;27.02;;
51907;SDS011;39320;53.214;6.556;2023-02-15T06:09:58;30.75;;;27.40;;
51907;SDS011;39320;53.214;6.556;2023-02-15T06:12:23;33.42;;;27.90;;
51907;SDS011;39320;53.214;6.556;2023-02-15T06:14:49;29.00;;;25.92;;
51907;SDS011;39320;53.214;6.556;2023-02-15T06:17:15;31.70;;;26.33;;
51907;SDS011;39320;53.214;6.556;2023-02-15T06:19:42;28.42;;;25.45;;
51907;SDS011;39320;53.214;6.556;2023-02-15T06:22:08;31.23;;;27.75;;
51907;SDS011;39320;53.214;6.556;2023-02-15T06:24:33;30.80;;;27.55;;
51907;SDS011;39320;53.214;6.556;2023-02-15T06:26:59;30.83;;;26.15;;
51907;SDS011;39320;53.214;6.556;2023-02-15T06:29:25;28.80;;;25.52;;
51907;SDS011;39320;53.214;6.556;2023-02-15T06:31:51;29.92;;;26.70;;
51907;SDS011;39320;53.214;6.556;2023-02-15T06:34:16;28.27;;;25.40;;
51907;SDS011;39320;53.214;6.556;2023-02-15T06:36:42;29.08;;;25.95;;
51907;SDS011;39320;53.214;6.556;2023-02-15T06:39:08;29.17;;;26.33;;
51907;SDS011;39320;53.214;6.556;2023-02-15T06:41:35;29.15;;;24.83;;
51907;SDS011;39320;53.214;6.556;2023-02-15T06:44:01;27.73;;;24.85;;
51907;SDS011;39320;53.214;6.556;2023-02-15T06:46:26;27.80;;;25.10;;
51907;SDS011;39320;53.214;6.556;2023-02-15T06:48:53;27.83;;;24.75;;
51907;SDS011;39320;53.214;6.556;2023-02-15T06:51:20;29.58;;;24.42;;
51907;SDS011;39320;53.214;6.556;2023-02-15T06:53:46;26.38;;;23.65;;
51907;SDS011;39320;53.214;6.556;2023-02-15T06:56:11;26.25;;;23.63;;
51907;SDS011;39320;53.214;6.556;2023-02-15T06:58:39;26.42;;;23.65;;
51907;SDS011;39320;53.214;6.556;2023-02-15T07:01:05;25.90;;;23.27;;
51907;SDS011;39320;53.214;6.556;2023-02-15T07:03:31;26.05;;;22.25;;
51907;SDS011;39320;53.214;6.556;2023-02-15T07:05:58;26.67;;;21.65;;
51907;SDS011;39320;53.214;6.556;2023-02-15T07:08:26;26.05;;;23.42;;
51907;SDS011;39320;53.214;6.556;2023-02-15T07:10:53;25.27;;;22.58;;
51907;SDS011;39320;53.214;6.556;2023-02-15T07:13:40;24.35;;;22.00;;
51907;SDS011;39320;53.214;6.556;2023-02-15T07:16:07;23.92;;;21.05;;
51907;SDS011;39320;53.214;6.556;2023-02-15T07:18:33;23.67;;;21.25;;
51907;SDS011;39320;53.214;6.556;2023-02-15T07:20:59;22.15;;;19.88;;
51907;SDS011;39320;53.214;6.556;2023-02-15T07:23:25;23.25;;;20.85;;
51907;SDS011;39320;53.214;6.556;2023-02-15T07:25:57;21.90;;;19.55;;
51907;SDS011;39320;53.214;6.556;2023-02-15T07:28:27;22.33;;;20.13;;
51907;SDS011;39320;53.214;6.556;2023-02-15T07:30:53;22.13;;;19.90;;
51907;SDS011;39320;53.214;6.556;2023-02-15T07:33:19;21.85;;;19.55;;
51907;SDS011;39320;53.214;6.556;2023-02-15T07:35:59;21.65;;;19.40;;
51907;SDS011;39320;53.214;6.556;2023-02-15T07:38:31;21.25;;;19.05;;
51907;SDS011;39320;53.214;6.556;2023-02-15T07:41:03;20.30;;;18.02;;
51907;SDS011;39320;53.214;6.556;2023-02-15T07:43:34;20.95;;;18.38;;
51907;SDS011;39320;53.214;6.556;2023-02-15T07:46:03;20.52;;;18.42;;
51907;SDS011;39320;53.214;6.556;2023-02-15T07:48:34;20.42;;;18.27;;
51907;SDS011;39320;53.214;6.556;2023-02-15T07:51:01;19.30;;;17.35;;
51907;SDS011;39320;53.214;6.556;2023-02-15T07:53:28;19.95;;;17.85;;
51907;SDS011;39320;53.214;6.556;2023-02-15T07:55:54;20.38;;;18.27;;
51907;SDS011;39320;53.214;6.556;2023-02-15T07:58:23;18.98;;;16.75;;
51907;SDS011;39320;53.214;6.556;2023-02-15T08:01:09;21.02;;;18.73;;
51907;SDS011;39320;53.214;6.556;2023-02-15T08:03:34;19.90;;;17.83;;
51907;SDS011;39320;53.214;6.556;2023-02-15T08:06:00;20.10;;;17.83;;
51907;SDS011;39320;53.214;6.556;2023-02-15T08:08:26;21.60;;;19.40;;
51907;SDS011;39320;53.214;6.556;2023-02-15T08:13:49;20.38;;;18.27;;
51907;SDS011;39320;53.214;6.556;2023-02-15T08:16:38;20.38;;;18.27;;
51907;SDS011;39320;53.214;6.556;2023-02-15T08:19:07;19.80;;;17.75;;
51907;SDS011;39320;53.214;6.556;2023-02-15T08:21:34;20.30;;;18.17;;
51907;SDS011;39320;53.214;6.556;2023-02-15T08:24:01;20.27;;;18.15;;
51907;SDS011;39320;53.214;6.556;2023-02-15T08:26:28;21.10;;;18.88;;
51907;SDS011;39320;53.214;6.556;2023-02-15T08:28:58;20.95;;;18.30;;
51907;SDS011;39320;53.214;6.556;2023-02-15T08:31:25;19.83;;;17.67;;
51907;SDS011;39320;53.214;6.556;2023-02-15T08:33:52;19.80;;;17.80;;
51907;SDS011;39320;53.214;6.556;2023-02-15T08:36:20;19.67;;;17.80;;
51907;SDS011;39320;53.214;6.556;2023-02-15T08:38:47;21.90;;;19.42;;
51907;SDS011;39320;53.214;6.556;2023-02-15T08:43:44;20.83;;;18.60;;
51907;SDS011;39320;53.214;6.556;2023-02-15T08:46:16;21.33;;;19.27;;
51907;SDS011;39320;53.214;6.556;2023-02-15T08:48:42;22.20;;;19.90;;
51907;SDS011;39320;53.214;6.556;2023-02-15T08:53:39;20.42;;;18.40;;
51907;SDS011;39320;53.214;6.556;2023-02-15T08:56:08;20.75;;;18.65;;
51907;SDS011;39320;53.214;6.556;2023-02-15T08:58:34;21.20;;;17.63;;
51907;SDS011;39320;53.214;6.556;2023-02-15T09:01:00;22.83;;;19.65;;
51907;SDS011;39320;53.214;6.556;2023-02-15T09:03:32;19.80;;;17.77;;
51907;SDS011;39320;53.214;6.556;2023-02-15T09:05:59;20.27;;;18.20;;
51907;SDS011;39320;53.214;6.556;2023-02-15T09:08:26;20.85;;;18.38;;
51907;SDS011;39320;53.214;6.556;2023-02-15T09:10:52;20.20;;;18.10;;
51907;SDS011;39320;53.214;6.556;2023-02-15T09:13:18;21.38;;;19.17;;
51907;SDS011;39320;53.214;6.556;2023-02-15T09:15:46;22.00;;;19.65;;
51907;SDS011;39320;53.214;6.556;2023-02-15T09:18:11;20.02;;;18.08;;
51907;SDS011;39320;53.214;6.556;2023-02-15T09:20:42;20.48;;;18.42;;
51907;SDS011;39320;53.214;6.556;2023-02-15T09:23:09;19.30;;;17.33;;
51907;SDS011;39320;53.214;6.556;2023-02-15T09:25:35;20.83;;;18.65;;
51907;SDS011;39320;53.214;6.556;2023-02-15T09:28:00;21.80;;;19.60;;
51907;SDS011;39320;53.214;6.556;2023-02-15T09:30:26;19.60;;;17.70;;
51907;SDS011;39320;53.214;6.556;2023-02-15T09:32:52;21.73;;;19.38;;
51907;SDS011;39320;53.214;6.556;2023-02-15T09:35:17;21.88;;;19.52;;
51907;SDS011;39320;53.214;6.556;2023-02-15T09:37:43;21.20;;;19.00;;
51907;SDS011;39320;53.214;6.556;2023-02-15T09:40:10;19.45;;;17.52;;
51907;SDS011;39320;53.214;6.556;2023-02-15T09:42:44;22.45;;;18.42;;
51907;SDS011;39320;53.214;6.556;2023-02-15T09:45:23;23.20;;;19.77;;
51907;SDS011;39320;53.214;6.556;2023-02-15T09:48:36;21.80;;;19.52;;
51907;SDS011;39320;53.214;6.556;2023-02-15T09:53:34;22.20;;;19.95;;
51907;SDS011;39320;53.214;6.556;2023-02-15T09:56:10;21.67;;;19.27;;
51907;SDS011;39320;53.214;6.556;2023-02-15T10:02:20;19.95;;;17.80;;
51907;SDS011;39320;53.214;6.556;2023-02-15T10:05:09;22.08;;;19.13;;
51907;SDS011;39320;53.214;6.556;2023-02-15T10:11:05;21.67;;;19.42;;
51907;SDS011;39320;53.214;6.556;2023-02-15T10:14:12;21.95;;;19.58;;
51907;SDS011;39320;53.214;6.556;2023-02-15T10:28:18;22.70;;;19.45;;
51907;SDS011;39320;53.214;6.556;2023-02-15T10:30:51;21.67;;;19.48;;
51907;SDS011;39320;53.214;6.556;2023-02-15T10:33:43;22.92;;;19.55;;
51907;SDS011;39320;53.214;6.556;2023-02-15T10:36:23;21.23;;;19.02;;
51907;SDS011;39320;53.214;6.556;2023-02-15T10:39:38;23.23;;;20.63;;
51907;SDS011;39320;53.214;6.556;2023-02-15T10:42:33;23.98;;;19.55;;
51907;SDS011;39320;53.214;6.556;2023-02-15T10:50:45;23.40;;;21.00;;
51907;SDS011;39320;53.214;6.556;2023-02-15T10:58:47;23.00;;;20.60;;
51907;SDS011;39320;53.214;6.556;2023-02-15T11:07:23;23.98;;;21.45;;
51907;SDS011;39320;53.214;6.556;2023-02-15T11:10:05;25.17;;;20.35;;
51907;SDS011;39320;53.214;6.556;2023-02-15T11:12:51;28.13;;;23.02;;
51907;SDS011;39320;53.214;6.556;2023-02-15T11:15:29;24.65;;;21.83;;
51907;SDS011;39320;53.214;6.556;2023-02-15T11:18:15;28.95;;;23.08;;
51907;SDS011;39320;53.214;6.556;2023-02-15T11:23:53;26.77;;;21.63;;
51907;SDS011;39320;53.214;6.556;2023-02-15T11:29:12;26.50;;;22.38;;
51907;SDS011;39320;53.214;6.556;2023-02-15T11:31:51;24.15;;;21.40;;
51907;SDS011;39320;53.214;6.556;2023-02-15T11:34:25;26.83;;;22.67;;
51907;SDS011;39320;53.214;6.556;2023-02-15T11:37:04;28.13;;;22.20;;
51907;SDS011;39320;53.214;6.556;2023-02-15T11:39:32;28.60;;;22.98;;
51907;SDS011;39320;53.214;6.556;2023-02-15T11:42:01;30.13;;;21.65;;
51907;SDS011;39320;53.214;6.556;2023-02-15T11:44:39;27.27;;;21.48;;
51907;SDS011;39320;53.214;6.556;2023-02-15T11:47:26;26.60;;;20.60;;
51907;SDS011;39320;53.214;6.556;2023-02-15T11:49:52;27.00;;;21.90;;
51907;SDS011;39320;53.214;6.556;2023-02-15T11:52:18;25.13;;;21.85;;
51907;SDS011;39320;53.214;6.556;2023-02-15T11:54:51;27.95;;;21.88;;
51907;SDS011;39320;53.214;6.556;2023-02-15T11:57:28;25.63;;;19.75;;
51907;SDS011;39320;53.214;6.556;2023-02-15T12:00:09;23.25;;;20.23;;
51907;SDS011;39320;53.214;6.556;2023-02-15T12:02:40;25.30;;;21.02;;
51907;SDS011;39320;53.214;6.556;2023-02-15T12:05:13;25.45;;;20.85;;
51907;SDS011;39320;53.214;6.556;2023-02-15T12:10:36;26.17;;;21.33;;
51907;SDS011;39320;53.214;6.556;2023-02-15T12:13:15;26.15;;;20.67;;
51907;SDS011;39320;53.214;6.556;2023-02-15T12:15:44;25.88;;;19.77;;
51907;SDS011;39320;53.214;6.556;2023-02-15T12:21:02;28.17;;;20.40;;
51907;SDS011;39320;53.214;6.556;2023-02-15T12:23:32;26.50;;;19.33;;
51907;SDS011;39320;53.214;6.556;2023-02-15T12:25:58;24.73;;;20.40;;
51907;SDS011;39320;53.214;6.556;2023-02-15T12:28:38;23.52;;;19.40;;
51907;SDS011;39320;53.214;6.556;2023-02-15T12:31:31;27.13;;;20.90;;
51907;SDS011;39320;53.214;6.556;2023-02-15T12:34:09;24.42;;;19.25;;
51907;SDS011;39320;53.214;6.556;2023-02-15T12:36:47;24.23;;;20.10;;
51907;SDS011;39320;53.214;6.556;2023-02-15T12:39:22;23.48;;;20.27;;
51907;SDS011;39320;53.214;6.556;2023-02-15T12:44:19;30.83;;;22.08;;
51907;SDS011;39320;53.214;6.556;2023-02-15T12:46:55;28.83;;;21.55;;
51907;SDS011;39320;53.214;6.556;2023-02-15T12:49:23;25.67;;;20.58;;
51907;SDS011;39320;53.214;6.556;2023-02-15T12:51:51;26.10;;;21.10;;
51907;SDS011;39320;53.214;6.556;2023-02-15T12:56:47;25.48;;;21.60;;
51907;SDS011;39320;53.214;6.556;2023-02-15T12:59:13;29.02;;;23.38;;
51907;SDS011;39320;53.214;6.556;2023-02-15T13:01:40;28.38;;;23.20;;
51907;SDS011;39320;53.214;6.556;2023-02-15T13:04:28;27.77;;;22.48;;
51907;SDS011;39320;53.214;6.556;2023-02-15T13:06:58;27.88;;;23.95;;
51907;SDS011;39320;53.214;6.556;2023-02-15T13:11:56;30.70;;;25.05;;
51907;SDS011;39320;53.214;6.556;2023-02-15T13:14:43;26.10;;;23.23;;
51907;SDS011;39320;53.214;6.556;2023-02-15T13:17:10;27.45;;;23.38;;
51907;SDS011;39320;53.214;6.556;2023-02-15T13:19:43;27.48;;;23.33;;
51907;SDS011;39320;53.214;6.556;2023-02-15T13:22:14;29.73;;;23.80;;
51907;SDS011;39320;53.214;6.556;2023-02-15T13:24:59;31.30;;;23.83;;
51907;SDS011;39320;53.214;6.556;2023-02-15T13:27:35;30.70;;;23.60;;
51907;SDS011;39320;53.214;6.556;2023-02-15T13:30:14;29.50;;;23.38;;
51907;SDS011;39320;53.214;6.556;2023-02-15T13:32:58;29.45;;;22.48;;
51907;SDS011;39320;53.214;6.556;2023-02-15T13:35:29;29.00;;;24.60;;
51907;SDS011;39320;53.214;6.556;2023-02-15T13:41:01;26.23;;;22.30;;
51907;SDS011;39320;53.214;6.556;2023-02-15T13:51:43;26.02;;;22.23;;
51907;SDS011;39320;53.214;6.556;2023-02-15T14:00:04;26.48;;;22.13;;
51907;SDS011;39320;53.214;6.556;2023-02-15T14:05:24;26.52;;;21.10;;
51907;SDS011;39320;53.214;6.556;2023-02-15T14:11:08;25.52;;;20.60;;
51907;SDS011;39320;53.214;6.556;2023-02-15T14:16:54;26.85;;;21.98;;
51907;SDS011;39320;53.214;6.556;2023-02-15T14:19:29;25.58;;;21.20;;
51907;SDS011;39320;53.214;6.556;2023-02-15T14:22:14;29.13;;;23.40;;
51907;SDS011;39320;53.214;6.556;2023-02-15T14:27:41;27.45;;;21.60;;
51907;SDS011;39320;53.214;6.556;2023-02-15T14:30:22;23.05;;;20.48;;
51907;SDS011;39320;53.214;6.556;2023-02-15T14:32:53;29.40;;;21.38;;
51907;SDS011;39320;53.214;6.556;2023-02-15T14:35:21;22.63;;;19.65;;
51907;SDS011;39320;53.214;6.556;2023-02-15T14:38:06;24.05;;;19.90;;
51907;SDS011;39320;53.214;6.556;2023-02-15T14:49:23;27.88;;;20.42;;
51907;SDS011;39320;53.214;6.556;2023-02-15T14:51:58;25.77;;;20.27;;
51907;SDS011;39320;53.214;6.556;2023-02-15T14:59:26;21.35;;;19.08;;
51907;SDS011;39320;53.214;6.556;2023-02-15T15:07:25;24.73;;;20.70;;
51907;SDS011;39320;53.214;6.556;2023-02-15T15:12:51;27.23;;;21.17;;
51907;SDS011;39320;53.214;6.556;2023-02-15T15:18:42;21.60;;;19.05;;
51907;SDS011;39320;53.214;6.556;2023-02-15T15:21:11;22.88;;;19.02;;
51907;SDS011;39320;53.214;6.556;2023-02-15T15:32:39;24.33;;;19.23;;
51907;SDS011;39320;53.214;6.556;2023-02-15T15:49:46;24.65;;;20.55;;
51907;SDS011;39320;53.214;6.556;2023-02-15T15:52:20;21.73;;;18.88;;
51907;SDS011;39320;53.214;6.556;2023-02-15T15:54:47;23.20;;;19.05;;
51907;SDS011;39320;53.214;6.556;2023-02-15T15:57:23;22.83;;;19.83;;
51907;SDS011;39320;53.214;6.556;2023-02-15T15:59:54;21.42;;;19.17;;
51907;SDS011;39320;53.214;6.556;2023-02-15T16:02:24;27.27;;;20.65;;
51907;SDS011;39320;53.214;6.556;2023-02-15T16:04:51;22.42;;;19.08;;
51907;SDS011;39320;53.214;6.556;2023-02-15T16:09:59;22.67;;;20.23;;
51907;SDS011;39320;53.214;6.556;2023-02-15T16:12:36;23.75;;;20.20;;
51907;SDS011;39320;53.214;6.556;2023-02-15T16:15:25;23.38;;;20.02;;
51907;SDS011;39320;53.214;6.556;2023-02-15T16:17:54;22.50;;;19.25;;
51907;SDS011;39320;53.214;6.556;2023-02-15T16:20:23;23.00;;;20.45;;
51907;SDS011;39320;53.214;6.556;2023-02-15T16:22:57;23.17;;;20.77;;
51907;SDS011;39320;53.214;6.556;2023-02-15T16:28:51;25.23;;;20.10;;
51907;SDS011;39320;53.214;6.556;2023-02-15T16:31:18;22.95;;;19.60;;
51907;SDS011;39320;53.214;6.556;2023-02-15T16:33:45;25.00;;;21.30;;
51907;SDS011;39320;53.214;6.556;2023-02-15T16:36:21;22.52;;;20.10;;
51907;SDS011;39320;53.214;6.556;2023-02-15T16:41:16;30.95;;;25.73;;
51907;SDS011;39320;53.214;6.556;2023-02-15T16:43:50;25.52;;;22.88;;
51907;SDS011;39320;53.214;6.556;2023-02-15T16:48:51;27.80;;;21.20;;
51907;SDS011;39320;53.214;6.556;2023-02-15T16:51:29;22.80;;;20.27;;
51907;SDS011;39320;53.214;6.556;2023-02-15T16:53:57;26.17;;;21.13;;
51907;SDS011;39320;53.214;6.556;2023-02-15T16:56:30;23.77;;;21.27;;
51907;SDS011;39320;53.214;6.556;2023-02-15T16:58:57;25.67;;;21.40;;
51907;SDS011;39320;53.214;6.556;2023-02-15T17:01:25;22.88;;;19.90;;
51907;SDS011;39320;53.214;6.556;2023-02-15T17:04:25;24.45;;;20.25;;
51907;SDS011;39320;53.214;6.556;2023-02-15T17:07:14;24.00;;;21.48;;
51907;SDS011;39320;53.214;6.556;2023-02-15T17:09:49;23.33;;;20.77;;
51907;SDS011;39320;53.214;6.556;2023-02-15T17:15:27;24.60;;;21.30;;
51907;SDS011;39320;53.214;6.556;2023-02-15T17:18:06;23.42;;;19.20;;
51907;SDS011;39320;53.214;6.556;2023-02-15T17:20:45;27.58;;;22.88;;
51907;SDS011;39320;53.214;6.556;2023-02-15T17:23:20;25.98;;;23.17;;
51907;SDS011;39320;53.214;6.556;2023-02-15T17:25:56;25.17;;;22.08;;
51907;SDS011;39320;53.214;6.556;2023-02-15T17:28:23;24.92;;;20.95;;
51907;SDS011;39320;53.214;6.556;2023-02-15T17:30:51;25.85;;;20.55;;
51907;SDS011;39320;53.214;6.556;2023-02-15T17:36:09;27.20;;;21.67;;
51907;SDS011;39320;53.214;6.556;2023-02-15T17:38:37;25.70;;;21.60;;
51907;SDS011;39320;53.214;6.556;2023-02-15T17:41:04;23.88;;;21.48;;
51907;SDS011;39320;53.214;6.556;2023-02-15T17:43:30;24.52;;;20.60;;
51907;SDS011;39320;53.214;6.556;2023-02-15T17:45:56;25.00;;;21.75;;
51907;SDS011;39320;53.214;6.556;2023-02-15T17:48:36;28.85;;;23.52;;
51907;SDS011;39320;53.214;6.556;2023-02-15T17:51:04;25.23;;;22.63;;
51907;SDS011;39320;53.214;6.556;2023-02-15T17:53:32;24.40;;;21.77;;
51907;SDS011;39320;53.214;6.556;2023-02-15T17:55:58;28.15;;;22.90;;
51907;SDS011;39320;53.214;6.556;2023-02-15T17:58:24;26.50;;;21.63;;
51907;SDS011;39320;53.214;6.556;2023-02-15T18:00:50;26.45;;;23.02;;
51907;SDS011;39320;53.214;6.556;2023-02-15T18:03:42;28.00;;;21.50;;
51907;SDS011;39320;53.214;6.556;2023-02-15T18:06:28;26.95;;;20.02;;